sensor_id;sensor_type;location;lat;lon;timestamp;P1;durP1;ratioP1;P2;durP2;ratioP2
37877;SDS011;23715;53.652;8.516;2023-07-08T00:00:38;10.68;;;9.85;;
37877;SDS011;23715;53.652;8.516;2023-07-08T00:05:39;11.03;;;9.93;;
37877;SDS011;23715;53.652;8.516;2023-07-08T00:10:39;11.20;;;10.10;;
37877;SDS011;23715;53.652;8.516;2023-07-08T00:20:44;11.65;;;10.15;;
37877;SDS011;23715;53.652;8.516;2023-07-08T00:25:46;11.63;;;10.43;;
37877;SDS011;23715;53.652;8.516;2023-07-08T00:30:47;11.87;;;9.97;;
37877;SDS011;23715;53.652;8.516;2023-07-08T00:35:48;10.28;;;9.43;;
37877;SDS011;23715;53.652;8.516;2023-07-08T00:41:10;11.75;;;9.95;;
37877;SDS011;23715;53.652;8.516;2023-07-08T00:51:29;10.95;;;9.90;;
37877;SDS011;23715;53.652;8.516;2023-07-08T01:01:31;11.28;;;10.05;;
37877;SDS011;23715;53.652;8.516;2023-07-08T01:06:35;11.03;;;10.03;;
37877;SDS011;23715;53.652;8.516;2023-07-08T01:11:39;14.33;;;11.18;;
37877;SDS011;23715;53.652;8.516;2023-07-08T01:16:40;11.60;;;10.32;;
37877;SDS011;23715;53.652;8.516;2023-07-08T01:21:57;11.93;;;10.68;;
37877;SDS011;23715;53.652;8.516;2023-07-08T01:26:52;10.40;;;9.50;;
37877;SDS011;23715;53.652;8.516;2023-07-08T01:31:55;13.40;;;11.57;;
37877;SDS011;23715;53.652;8.516;2023-07-08T01:36:57;13.32;;;12.03;;
37877;SDS011;23715;53.652;8.516;2023-07-08T01:42:00;11.97;;;10.78;;
37877;SDS011;23715;53.652;8.516;2023-07-08T01:47:02;12.78;;;10.85;;
37877;SDS011;23715;53.652;8.516;2023-07-08T01:52:04;12.40;;;10.28;;
37877;SDS011;23715;53.652;8.516;2023-07-08T01:57:05;12.30;;;11.05;;
37877;SDS011;23715;53.652;8.516;2023-07-08T02:02:06;13.32;;;9.85;;
37877;SDS011;23715;53.652;8.516;2023-07-08T02:07:07;12.33;;;11.05;;
37877;SDS011;23715;53.652;8.516;2023-07-08T02:12:07;11.93;;;10.88;;
37877;SDS011;23715;53.652;8.516;2023-07-08T02:17:09;12.65;;;10.38;;
37877;SDS011;23715;53.652;8.516;2023-07-08T02:22:10;12.65;;;11.25;;
37877;SDS011;23715;53.652;8.516;2023-07-08T02:27:10;15.10;;;11.45;;
37877;SDS011;23715;53.652;8.516;2023-07-08T02:32:10;14.18;;;11.83;;
37877;SDS011;23715;53.652;8.516;2023-07-08T02:37:11;14.75;;;12.85;;
37877;SDS011;23715;53.652;8.516;2023-07-08T02:42:11;14.63;;;13.22;;
37877;SDS011;23715;53.652;8.516;2023-07-08T02:47:12;15.03;;;12.65;;
37877;SDS011;23715;53.652;8.516;2023-07-08T02:52:12;13.50;;;12.17;;
37877;SDS011;23715;53.652;8.516;2023-07-08T03:02:12;17.27;;;12.87;;
37877;SDS011;23715;53.652;8.516;2023-07-08T03:07:13;14.05;;;12.55;;
37877;SDS011;23715;53.652;8.516;2023-07-08T03:12:15;14.23;;;12.55;;
37877;SDS011;23715;53.652;8.516;2023-07-08T03:17:15;14.50;;;13.03;;
37877;SDS011;23715;53.652;8.516;2023-07-08T03:22:17;14.07;;;12.63;;
37877;SDS011;23715;53.652;8.516;2023-07-08T03:27:17;15.25;;;13.30;;
37877;SDS011;23715;53.652;8.516;2023-07-08T03:32:20;14.90;;;13.32;;
37877;SDS011;23715;53.652;8.516;2023-07-08T03:37:22;15.60;;;13.78;;
37877;SDS011;23715;53.652;8.516;2023-07-08T03:42:23;14.80;;;12.53;;
37877;SDS011;23715;53.652;8.516;2023-07-08T03:47:23;15.38;;;12.33;;
37877;SDS011;23715;53.652;8.516;2023-07-08T03:52:24;14.25;;;12.85;;
37877;SDS011;23715;53.652;8.516;2023-07-08T03:57:24;16.97;;;13.85;;
37877;SDS011;23715;53.652;8.516;2023-07-08T04:02:25;14.95;;;13.53;;
37877;SDS011;23715;53.652;8.516;2023-07-08T04:07:27;16.32;;;13.55;;
37877;SDS011;23715;53.652;8.516;2023-07-08T04:12:27;18.95;;;13.50;;
37877;SDS011;23715;53.652;8.516;2023-07-08T04:17:27;14.47;;;12.93;;
37877;SDS011;23715;53.652;8.516;2023-07-08T04:22:30;14.70;;;13.08;;
37877;SDS011;23715;53.652;8.516;2023-07-08T04:27:32;17.60;;;15.68;;
37877;SDS011;23715;53.652;8.516;2023-07-08T04:32:32;16.42;;;14.75;;
37877;SDS011;23715;53.652;8.516;2023-07-08T04:37:34;18.02;;;15.55;;
37877;SDS011;23715;53.652;8.516;2023-07-08T04:42:36;16.37;;;14.90;;
37877;SDS011;23715;53.652;8.516;2023-07-08T04:47:39;17.52;;;14.90;;
37877;SDS011;23715;53.652;8.516;2023-07-08T04:52:40;15.00;;;13.47;;
37877;SDS011;23715;53.652;8.516;2023-07-08T05:02:40;15.20;;;13.83;;
37877;SDS011;23715;53.652;8.516;2023-07-08T05:07:40;15.20;;;13.53;;
37877;SDS011;23715;53.652;8.516;2023-07-08T05:12:43;16.73;;;14.90;;
37877;SDS011;23715;53.652;8.516;2023-07-08T05:17:44;16.85;;;14.43;;
37877;SDS011;23715;53.652;8.516;2023-07-08T05:27:45;16.57;;;15.20;;
37877;SDS011;23715;53.652;8.516;2023-07-08T05:32:46;16.15;;;14.73;;
37877;SDS011;23715;53.652;8.516;2023-07-08T05:37:46;15.20;;;13.90;;
37877;SDS011;23715;53.652;8.516;2023-07-08T05:42:46;14.03;;;13.03;;
37877;SDS011;23715;53.652;8.516;2023-07-08T05:47:49;14.98;;;13.58;;
37877;SDS011;23715;53.652;8.516;2023-07-08T05:52:50;14.05;;;12.73;;
37877;SDS011;23715;53.652;8.516;2023-07-08T05:57:50;17.85;;;11.45;;
37877;SDS011;23715;53.652;8.516;2023-07-08T06:02:50;11.88;;;10.75;;
37877;SDS011;23715;53.652;8.516;2023-07-08T06:12:50;12.60;;;10.30;;
37877;SDS011;23715;53.652;8.516;2023-07-08T06:17:52;11.20;;;10.03;;
37877;SDS011;23715;53.652;8.516;2023-07-08T06:22:54;15.93;;;10.08;;
37877;SDS011;23715;53.652;8.516;2023-07-08T06:27:54;12.55;;;10.75;;
37877;SDS011;23715;53.652;8.516;2023-07-08T06:32:54;10.48;;;9.68;;
37877;SDS011;23715;53.652;8.516;2023-07-08T06:37:55;11.73;;;10.40;;
37877;SDS011;23715;53.652;8.516;2023-07-08T06:42:55;11.33;;;10.40;;
37877;SDS011;23715;53.652;8.516;2023-07-08T06:47:57;11.25;;;10.35;;
37877;SDS011;23715;53.652;8.516;2023-07-08T06:52:57;12.60;;;10.70;;
37877;SDS011;23715;53.652;8.516;2023-07-08T06:57:58;12.05;;;11.08;;
37877;SDS011;23715;53.652;8.516;2023-07-08T07:02:58;11.68;;;10.75;;
37877;SDS011;23715;53.652;8.516;2023-07-08T07:07:58;16.07;;;12.13;;
37877;SDS011;23715;53.652;8.516;2023-07-08T07:12:58;12.30;;;11.12;;
37877;SDS011;23715;53.652;8.516;2023-07-08T07:18:00;11.43;;;10.63;;
37877;SDS011;23715;53.652;8.516;2023-07-08T07:23:01;12.28;;;11.28;;
37877;SDS011;23715;53.652;8.516;2023-07-08T07:28:01;12.78;;;11.75;;
37877;SDS011;23715;53.652;8.516;2023-07-08T07:33:03;12.82;;;11.73;;
37877;SDS011;23715;53.652;8.516;2023-07-08T07:43:03;12.10;;;11.18;;
37877;SDS011;23715;53.652;8.516;2023-07-08T07:48:03;13.05;;;11.93;;
37877;SDS011;23715;53.652;8.516;2023-07-08T07:53:05;13.00;;;11.80;;
37877;SDS011;23715;53.652;8.516;2023-07-08T07:58:06;12.47;;;11.57;;
37877;SDS011;23715;53.652;8.516;2023-07-08T08:03:08;12.65;;;11.48;;
37877;SDS011;23715;53.652;8.516;2023-07-08T08:08:09;12.18;;;11.28;;
37877;SDS011;23715;53.652;8.516;2023-07-08T08:13:09;14.15;;;11.15;;
37877;SDS011;23715;53.652;8.516;2023-07-08T08:18:10;12.63;;;11.45;;
37877;SDS011;23715;53.652;8.516;2023-07-08T08:23:10;11.90;;;11.00;;
37877;SDS011;23715;53.652;8.516;2023-07-08T08:28:11;13.10;;;12.00;;
37877;SDS011;23715;53.652;8.516;2023-07-08T08:33:11;11.73;;;10.93;;
37877;SDS011;23715;53.652;8.516;2023-07-08T08:38:13;12.90;;;11.60;;
37877;SDS011;23715;53.652;8.516;2023-07-08T08:43:14;12.53;;;11.50;;
37877;SDS011;23715;53.652;8.516;2023-07-08T08:48:22;12.58;;;11.68;;
37877;SDS011;23715;53.652;8.516;2023-07-08T08:53:28;11.85;;;11.05;;
37877;SDS011;23715;53.652;8.516;2023-07-08T08:58:42;12.20;;;11.30;;
37877;SDS011;23715;53.652;8.516;2023-07-08T09:04:00;12.82;;;11.63;;
37877;SDS011;23715;53.652;8.516;2023-07-08T09:09:18;13.05;;;12.05;;
37877;SDS011;23715;53.652;8.516;2023-07-08T09:14:14;13.22;;;12.03;;
37877;SDS011;23715;53.652;8.516;2023-07-08T09:19:25;18.42;;;13.60;;
37877;SDS011;23715;53.652;8.516;2023-07-08T09:24:31;14.26;;;13.04;;
37877;SDS011;23715;53.652;8.516;2023-07-08T09:29:45;13.72;;;12.65;;
37877;SDS011;23715;53.652;8.516;2023-07-08T09:34:47;12.25;;;11.10;;
37877;SDS011;23715;53.652;8.516;2023-07-08T09:39:54;13.13;;;12.05;;
37877;SDS011;23715;53.652;8.516;2023-07-08T09:44:56;13.60;;;12.50;;
37877;SDS011;23715;53.652;8.516;2023-07-08T09:50:00;13.10;;;12.30;;
37877;SDS011;23715;53.652;8.516;2023-07-08T09:55:02;12.82;;;11.80;;
37877;SDS011;23715;53.652;8.516;2023-07-08T10:00:07;13.93;;;12.75;;
37877;SDS011;23715;53.652;8.516;2023-07-08T10:05:13;14.23;;;13.10;;
37877;SDS011;23715;53.652;8.516;2023-07-08T10:10:18;14.23;;;13.10;;
37877;SDS011;23715;53.652;8.516;2023-07-08T10:15:22;13.13;;;12.20;;
37877;SDS011;23715;53.652;8.516;2023-07-08T10:20:24;14.25;;;13.15;;
37877;SDS011;23715;53.652;8.516;2023-07-08T10:31:12;13.40;;;12.65;;
37877;SDS011;23715;53.652;8.516;2023-07-08T10:52:51;14.28;;;13.25;;
37877;SDS011;23715;53.652;8.516;2023-07-08T11:03:08;14.00;;;13.10;;
37877;SDS011;23715;53.652;8.516;2023-07-08T11:08:22;15.63;;;14.43;;
37877;SDS011;23715;53.652;8.516;2023-07-08T11:13:21;15.78;;;14.38;;
37877;SDS011;23715;53.652;8.516;2023-07-08T11:18:30;14.00;;;12.82;;
37877;SDS011;23715;53.652;8.516;2023-07-08T11:23:43;14.13;;;13.22;;
37877;SDS011;23715;53.652;8.516;2023-07-08T11:28:46;14.85;;;13.55;;
37877;SDS011;23715;53.652;8.516;2023-07-08T11:33:50;14.00;;;12.75;;
37877;SDS011;23715;53.652;8.516;2023-07-08T11:38:55;14.55;;;13.32;;
37877;SDS011;23715;53.652;8.516;2023-07-08T11:43:57;13.25;;;12.25;;
37877;SDS011;23715;53.652;8.516;2023-07-08T11:49:03;13.78;;;12.78;;
37877;SDS011;23715;53.652;8.516;2023-07-08T11:54:20;13.98;;;12.90;;
37877;SDS011;23715;53.652;8.516;2023-07-08T11:59:21;14.78;;;13.80;;
37877;SDS011;23715;53.652;8.516;2023-07-08T12:04:28;14.50;;;12.87;;
37877;SDS011;23715;53.652;8.516;2023-07-08T12:09:38;13.28;;;12.37;;
37877;SDS011;23715;53.652;8.516;2023-07-08T12:14:40;13.70;;;12.65;;
37877;SDS011;23715;53.652;8.516;2023-07-08T12:19:42;12.88;;;11.97;;
37877;SDS011;23715;53.652;8.516;2023-07-08T12:24:44;13.30;;;12.20;;
37877;SDS011;23715;53.652;8.516;2023-07-08T12:29:45;13.22;;;12.23;;
37877;SDS011;23715;53.652;8.516;2023-07-08T12:34:45;14.18;;;13.18;;
37877;SDS011;23715;53.652;8.516;2023-07-08T12:39:53;14.38;;;13.08;;
37877;SDS011;23715;53.652;8.516;2023-07-08T12:45:00;13.40;;;12.30;;
37877;SDS011;23715;53.652;8.516;2023-07-08T12:50:00;12.40;;;11.48;;
37877;SDS011;23715;53.652;8.516;2023-07-08T12:55:01;13.10;;;11.95;;
37877;SDS011;23715;53.652;8.516;2023-07-08T13:00:02;12.70;;;11.70;;
37877;SDS011;23715;53.652;8.516;2023-07-08T13:05:04;12.30;;;11.30;;
37877;SDS011;23715;53.652;8.516;2023-07-08T13:10:05;12.28;;;11.48;;
37877;SDS011;23715;53.652;8.516;2023-07-08T13:15:13;12.90;;;12.00;;
37877;SDS011;23715;53.652;8.516;2023-07-08T13:20:14;12.73;;;11.57;;
37877;SDS011;23715;53.652;8.516;2023-07-08T13:25:16;12.63;;;11.77;;
37877;SDS011;23715;53.652;8.516;2023-07-08T13:30:18;13.10;;;12.28;;
37877;SDS011;23715;53.652;8.516;2023-07-08T13:35:27;13.05;;;12.10;;
37877;SDS011;23715;53.652;8.516;2023-07-08T13:40:35;12.75;;;11.75;;
37877;SDS011;23715;53.652;8.516;2023-07-08T13:45:36;12.35;;;11.53;;
37877;SDS011;23715;53.652;8.516;2023-07-08T13:50:41;13.20;;;12.17;;
37877;SDS011;23715;53.652;8.516;2023-07-08T13:55:40;12.53;;;11.53;;
37877;SDS011;23715;53.652;8.516;2023-07-08T14:00:40;12.00;;;11.03;;
37877;SDS011;23715;53.652;8.516;2023-07-08T14:05:41;12.45;;;11.25;;
37877;SDS011;23715;53.652;8.516;2023-07-08T14:10:42;13.55;;;12.40;;
37877;SDS011;23715;53.652;8.516;2023-07-08T14:15:43;13.48;;;12.37;;
37877;SDS011;23715;53.652;8.516;2023-07-08T14:20:44;12.20;;;11.40;;
37877;SDS011;23715;53.652;8.516;2023-07-08T14:25:45;13.83;;;12.63;;
37877;SDS011;23715;53.652;8.516;2023-07-08T23:42:05;12.95;;;10.90;;
37877;SDS011;23715;53.652;8.516;2023-07-08T23:47:09;12.05;;;10.08;;
37877;SDS011;23715;53.652;8.516;2023-07-08T23:52:10;11.33;;;10.30;;
37877;SDS011;23715;53.652;8.516;2023-07-08T23:57:14;11.78;;;10.88;;
